createdAt,value
2022-12-23T00:00:43.385Z,7.40
2022-12-23T00:03:10.568Z,6.60
2022-12-23T00:05:39.717Z,7.47
2022-12-23T00:08:08.449Z,7.90
2022-12-23T00:10:39.241Z,6.80
2022-12-23T00:13:25.161Z,7.13
2022-12-23T00:15:51.817Z,7.45
2022-12-23T00:18:18.357Z,5.68
2022-12-23T00:20:44.904Z,7.20
2022-12-23T00:23:12.092Z,5.25
2022-12-23T00:25:42.855Z,5.40
2022-12-23T00:28:18.005Z,5.57
2022-12-23T00:30:52.525Z,5.20
2022-12-23T00:33:23.239Z,5.30
2022-12-23T00:35:51.515Z,4.95
2022-12-23T00:38:38.136Z,5.85
2022-12-23T00:41:25.001Z,6.28
2022-12-23T00:43:52.111Z,4.50
2022-12-23T00:46:18.773Z,5.93
2022-12-23T00:49:04.090Z,5.97
2022-12-23T00:51:31.092Z,4.95
2022-12-23T00:53:58.197Z,5.28
2022-12-23T00:56:25.199Z,5.05
2022-12-23T00:58:52.227Z,4.30
2022-12-23T01:01:37.531Z,4.35
2022-12-23T01:04:23.468Z,4.78
2022-12-23T01:06:50.105Z,5.50
2022-12-23T01:09:16.642Z,4.70
2022-12-23T01:11:43.248Z,5.05
2022-12-23T01:14:09.807Z,4.65
2022-12-23T01:16:40.506Z,5.05
2022-12-23T01:19:07.540Z,4.95
2022-12-23T01:21:35.048Z,5.38
2022-12-23T01:24:02.251Z,6.43
2022-12-23T01:26:28.832Z,5.15
2022-12-23T01:28:56.863Z,5.72
2022-12-23T01:31:25.043Z,5.13
2022-12-23T01:33:52.041Z,6.00
2022-12-23T01:36:18.934Z,5.25
2022-12-23T01:38:45.770Z,5.80
2022-12-23T01:41:49.056Z,4.90
2022-12-23T01:44:53.153Z,5.03
2022-12-23T01:47:40.497Z,4.93
2022-12-23T01:50:12.923Z,5.72
2022-12-23T01:52:48.031Z,5.88
2022-12-23T01:57:44.899Z,6.60
2022-12-23T02:00:30.532Z,6.60
2022-12-23T02:03:15.865Z,6.60
2022-12-23T02:05:45.937Z,7.00
2022-12-23T02:08:34.595Z,6.82
2022-12-23T02:11:07.945Z,7.18
2022-12-23T02:14:17.467Z,6.70
2022-12-23T02:16:55.160Z,7.45
2022-12-23T02:19:57.005Z,7.63
2022-12-23T02:22:42.002Z,8.63
2022-12-23T02:25:17.967Z,8.10
2022-12-23T02:28:11.214Z,9.20
2022-12-23T02:30:51.358Z,9.32
2022-12-23T02:33:33.021Z,9.48
2022-12-23T02:36:14.599Z,9.35
2022-12-23T02:39:13.481Z,9.55
2022-12-23T02:42:18.102Z,9.45
2022-12-23T02:44:53.911Z,10.07
2022-12-23T02:47:27.778Z,11.50
2022-12-23T02:49:57.787Z,11.65
2022-12-23T02:52:30.149Z,13.30
2022-12-23T02:55:12.881Z,12.57
2022-12-23T02:57:46.094Z,12.98
2022-12-23T03:00:14.093Z,13.65
2022-12-23T03:02:42.743Z,14.32
2022-12-23T03:05:43.894Z,14.45
2022-12-23T03:08:27.311Z,14.80
2022-12-23T03:11:12.797Z,15.43
2022-12-23T03:16:37.700Z,16.95
2022-12-23T03:19:20.877Z,17.58
2022-12-23T03:21:53.280Z,18.17
2022-12-23T03:24:40.869Z,17.63
2022-12-23T03:27:13.219Z,17.08
2022-12-23T03:29:43.738Z,19.40
2022-12-23T03:32:13.937Z,19.40
2022-12-23T03:34:47.002Z,18.17
2022-12-23T03:37:17.162Z,16.95
2022-12-23T03:39:49.591Z,17.98
2022-12-23T03:42:35.147Z,17.90
2022-12-23T03:47:59.218Z,18.67
2022-12-23T03:50:27.807Z,16.60
2022-12-23T03:53:04.824Z,16.75
2022-12-23T03:55:38.610Z,16.92
2022-12-23T03:58:43.430Z,17.42
2022-12-23T04:01:24.642Z,17.40
2022-12-23T04:04:48.621Z,17.23
2022-12-23T04:07:27.843Z,15.65
2022-12-23T04:09:55.182Z,15.38
2022-12-23T04:12:24.959Z,16.30
2022-12-23T04:14:51.853Z,17.10
2022-12-23T04:17:19.493Z,15.40
2022-12-23T04:19:47.149Z,17.08
2022-12-23T04:22:15.603Z,16.63
2022-12-23T04:24:43.330Z,15.27
2022-12-23T04:27:14.091Z,16.25
2022-12-23T04:29:41.269Z,15.57
2022-12-23T04:32:09.833Z,15.32
2022-12-23T04:34:36.452Z,15.40
2022-12-23T04:37:03.447Z,15.40
2022-12-23T04:39:30.155Z,17.00
2022-12-23T04:41:56.781Z,14.63
2022-12-23T04:44:23.379Z,16.55
2022-12-23T04:46:50.120Z,16.58
2022-12-23T04:49:17.285Z,16.60
2022-12-23T04:51:43.992Z,14.23
2022-12-23T04:54:12.559Z,17.73
2022-12-23T04:56:39.676Z,16.67
2022-12-23T04:59:06.809Z,15.80
2022-12-23T05:01:34.021Z,17.42
2022-12-23T05:04:01.166Z,17.35
2022-12-23T05:06:27.739Z,16.95
2022-12-23T05:08:54.346Z,16.00
2022-12-23T05:11:20.865Z,16.55
2022-12-23T05:13:47.465Z,14.15
2022-12-23T05:16:14.123Z,15.50
2022-12-23T05:18:41.315Z,15.70
2022-12-23T05:21:08.865Z,13.88
2022-12-23T05:23:35.452Z,13.65
2022-12-23T05:26:02.099Z,14.13
2022-12-23T05:28:29.734Z,12.43
2022-12-23T05:31:04.525Z,11.60
2022-12-23T05:33:34.309Z,13.40
2022-12-23T05:36:02.081Z,11.93
2022-12-23T05:38:28.773Z,12.55
2022-12-23T05:40:55.865Z,14.27
2022-12-23T05:43:22.771Z,15.27
2022-12-23T05:45:50.869Z,14.02
2022-12-23T05:48:17.569Z,14.68
2022-12-23T05:50:44.716Z,13.98
2022-12-23T05:53:12.468Z,15.13
2022-12-23T05:55:39.509Z,16.60
2022-12-23T05:58:06.051Z,16.63
2022-12-23T06:00:32.643Z,15.40
2022-12-23T06:02:59.528Z,17.45
2022-12-23T06:05:26.488Z,14.45
2022-12-23T06:07:53.177Z,13.27
2022-12-23T06:10:19.727Z,15.02
2022-12-23T06:12:46.287Z,12.00
2022-12-23T06:15:12.875Z,14.02
2022-12-23T06:17:40.198Z,12.88
2022-12-23T06:20:13.410Z,14.32
2022-12-23T06:22:45.654Z,12.77
2022-12-23T06:25:13.615Z,13.82
2022-12-23T06:27:41.080Z,14.00
2022-12-23T06:30:08.661Z,13.82
2022-12-23T06:32:40.499Z,15.07
2022-12-23T06:35:08.183Z,15.57
2022-12-23T06:37:35.981Z,16.05
2022-12-23T06:40:02.924Z,15.63
2022-12-23T06:42:30.102Z,16.10
2022-12-23T06:44:57.002Z,14.20
2022-12-23T06:47:23.556Z,16.33
2022-12-23T06:49:50.120Z,16.98
2022-12-23T06:52:16.995Z,15.00
2022-12-23T06:54:45.323Z,16.45
2022-12-23T06:57:12.127Z,15.32
2022-12-23T06:59:39.266Z,15.52
2022-12-23T07:02:06.823Z,15.70
2022-12-23T07:04:33.575Z,16.60
2022-12-23T07:07:01.243Z,13.90
2022-12-23T07:09:28.156Z,16.48
2022-12-23T07:11:54.826Z,15.30
2022-12-23T07:14:21.921Z,15.35
2022-12-23T07:16:51.085Z,13.48
2022-12-23T07:19:17.763Z,13.15
2022-12-23T07:21:44.388Z,12.85
2022-12-23T07:24:12.651Z,12.43
2022-12-23T07:26:39.375Z,10.88
2022-12-23T07:29:05.955Z,10.10
2022-12-23T07:31:32.640Z,10.00
2022-12-23T07:33:59.269Z,11.02
2022-12-23T07:36:25.822Z,11.10
2022-12-23T07:38:54.582Z,11.80
2022-12-23T07:41:21.164Z,11.57
2022-12-23T07:43:48.367Z,11.43
2022-12-23T07:46:15.111Z,11.02
2022-12-23T07:48:42.363Z,10.43
2022-12-23T07:51:09.009Z,11.13
2022-12-23T07:53:35.763Z,10.65
2022-12-23T07:56:02.413Z,10.65
2022-12-23T07:58:29.557Z,10.43
2022-12-23T08:01:02.467Z,10.85
2022-12-23T08:03:29.516Z,9.50
2022-12-23T08:06:09.310Z,10.98
2022-12-23T08:08:35.912Z,11.65
2022-12-23T08:11:08.017Z,12.77
2022-12-23T08:13:36.727Z,10.23
2022-12-23T08:16:05.760Z,13.38
2022-12-23T08:18:36.403Z,12.05
2022-12-23T08:21:09.060Z,11.48
2022-12-23T08:23:36.236Z,12.32
2022-12-23T08:26:06.051Z,11.57
2022-12-23T08:28:34.016Z,11.45
2022-12-23T08:31:13.282Z,13.00
2022-12-23T08:33:42.501Z,11.05
2022-12-23T08:36:16.118Z,11.65
2022-12-23T08:38:46.568Z,9.80
2022-12-23T08:41:17.081Z,15.75
2022-12-23T08:43:47.405Z,12.57
2022-12-23T08:46:14.009Z,14.02
2022-12-23T08:48:46.962Z,10.73
2022-12-23T08:53:43.545Z,13.27
2022-12-23T08:56:13.549Z,13.30
2022-12-23T08:58:42.629Z,12.80
2022-12-23T09:01:10.687Z,11.40
2022-12-23T09:03:37.945Z,11.63
2022-12-23T09:06:11.664Z,13.20
2022-12-23T09:08:41.034Z,13.90
2022-12-23T09:11:12.278Z,14.43
2022-12-23T09:13:41.051Z,13.52
2022-12-23T09:16:08.241Z,17.85
2022-12-23T09:18:35.829Z,14.88
2022-12-23T09:21:05.650Z,17.55
2022-12-23T09:23:32.420Z,16.67
2022-12-23T09:25:59.126Z,17.75
2022-12-23T09:28:26.471Z,20.70
2022-12-23T09:30:53.389Z,17.05
2022-12-23T09:33:20.031Z,16.35
2022-12-23T09:35:46.729Z,17.67
2022-12-23T09:38:13.369Z,16.27
2022-12-23T09:40:42.492Z,19.73
2022-12-23T09:43:33.631Z,17.08
2022-12-23T09:46:08.777Z,16.38
2022-12-23T09:48:48.307Z,17.90
2022-12-23T09:51:19.011Z,16.73
2022-12-23T09:53:56.944Z,14.98
2022-12-23T09:56:51.643Z,14.05
2022-12-23T09:59:36.233Z,14.75
2022-12-23T10:02:31.264Z,15.73
2022-12-23T10:05:22.891Z,17.10
2022-12-23T10:08:18.548Z,17.10
2022-12-23T10:10:48.781Z,15.30
2022-12-23T10:13:26.802Z,15.20
2022-12-23T10:15:56.348Z,16.17
2022-12-23T10:18:38.349Z,14.57
2022-12-23T10:21:13.380Z,14.98
2022-12-23T10:26:23.176Z,13.23
2022-12-23T10:29:20.148Z,12.65
2022-12-23T10:32:02.158Z,14.18
2022-12-23T10:34:38.731Z,12.27
2022-12-23T10:37:21.237Z,12.18
2022-12-23T10:40:09.870Z,12.55
2022-12-23T10:42:52.168Z,12.65
2022-12-23T10:45:33.977Z,10.85
2022-12-23T10:48:33.053Z,11.60
2022-12-23T10:51:06.163Z,11.00
2022-12-23T10:53:43.167Z,12.90
2022-12-23T10:56:11.802Z,13.85
2022-12-23T10:58:43.309Z,12.88
2022-12-23T11:01:21.797Z,12.45
2022-12-23T11:04:09.875Z,12.48
2022-12-23T11:06:42.542Z,11.93
2022-12-23T11:09:18.507Z,12.48
2022-12-23T11:12:05.767Z,13.70
2022-12-23T11:14:50.248Z,12.55
2022-12-23T11:17:28.118Z,13.35
2022-12-23T11:20:16.327Z,11.15
2022-12-23T11:22:58.332Z,12.30
2022-12-23T11:25:24.830Z,11.77
2022-12-23T11:28:03.783Z,11.05
2022-12-23T11:30:33.077Z,11.35
2022-12-23T11:33:00.141Z,10.77
2022-12-23T11:35:33.828Z,12.57
2022-12-23T11:38:02.842Z,11.27
2022-12-23T11:40:31.987Z,10.70
2022-12-23T11:43:11.774Z,9.95
2022-12-23T11:45:38.865Z,9.68
2022-12-23T11:48:25.898Z,9.98
2022-12-23T11:51:01.368Z,9.13
2022-12-23T11:53:28.818Z,8.60
2022-12-23T11:56:07.556Z,8.20
2022-12-23T11:58:47.139Z,9.00
2022-12-23T12:01:20.209Z,8.02
2022-12-23T12:03:50.186Z,8.13
2022-12-23T12:06:19.459Z,8.50
2022-12-23T12:08:51.508Z,8.55
2022-12-23T12:11:25.617Z,8.05
2022-12-23T12:14:06.369Z,9.00
2022-12-23T12:16:54.567Z,8.95
2022-12-23T12:19:26.016Z,9.63
2022-12-23T12:21:57.311Z,8.70
2022-12-23T12:24:39.513Z,8.48
2022-12-23T12:27:11.430Z,7.97
2022-12-23T12:29:51.404Z,8.80
2022-12-23T12:32:30.379Z,8.35
2022-12-23T12:35:20.159Z,8.35
2022-12-23T12:37:53.779Z,8.30
2022-12-23T12:40:34.121Z,8.70
2022-12-23T12:43:19.659Z,8.48
2022-12-23T12:45:53.671Z,8.68
2022-12-23T12:48:36.553Z,6.10
2022-12-23T12:51:09.082Z,8.02
2022-12-23T12:53:39.690Z,9.13
2022-12-23T12:56:27.464Z,8.25
2022-12-23T12:58:54.100Z,9.13
2022-12-23T13:01:59.055Z,7.90
2022-12-23T13:04:47.150Z,8.52
2022-12-23T13:07:40.699Z,8.65
2022-12-23T13:10:34.936Z,10.20
2022-12-23T13:13:41.440Z,10.63
2022-12-23T13:19:01.389Z,11.70
2022-12-23T13:21:54.086Z,10.65
2022-12-23T13:24:37.399Z,11.50
2022-12-23T13:27:33.318Z,11.25
2022-12-23T13:30:16.451Z,10.50
2022-12-23T13:33:00.486Z,11.70
2022-12-23T13:35:46.672Z,11.45
2022-12-23T13:38:40.815Z,11.63
2022-12-23T13:41:23.247Z,11.10
2022-12-23T13:44:04.625Z,11.23
2022-12-23T13:46:48.200Z,12.32
2022-12-23T13:49:31.695Z,12.60
2022-12-23T13:52:12.616Z,12.00
2022-12-23T13:54:57.498Z,13.45
2022-12-23T13:57:34.703Z,8.60
2022-12-23T14:00:34.006Z,12.98
2022-12-23T14:03:15.815Z,12.95
2022-12-23T14:05:50.465Z,13.55
2022-12-23T14:08:22.920Z,14.55
2022-12-23T14:11:05.159Z,13.07
2022-12-23T14:13:45.087Z,13.75
2022-12-23T14:16:39.985Z,13.13
2022-12-23T14:19:19.123Z,12.68
2022-12-23T14:22:15.341Z,12.02
2022-12-23T14:25:08.458Z,12.55
2022-12-23T14:27:50.670Z,13.23
2022-12-23T14:30:37.342Z,12.02
2022-12-23T14:33:30.432Z,11.82
2022-12-23T14:36:28.772Z,13.32
2022-12-23T14:39:20.899Z,14.18
2022-12-23T14:42:01.649Z,12.23
2022-12-23T14:44:48.314Z,13.77
2022-12-23T14:47:40.508Z,11.88
2022-12-23T14:50:52.952Z,13.02
2022-12-23T14:53:24.378Z,13.57
2022-12-23T14:56:10.160Z,11.98
2022-12-23T14:58:41.636Z,10.85
2022-12-23T15:01:14.947Z,11.57
2022-12-23T15:03:54.578Z,10.25
2022-12-23T15:06:42.623Z,11.45
2022-12-23T15:09:27.106Z,11.57
2022-12-23T15:12:01.242Z,11.82
2022-12-23T15:14:46.558Z,10.80
2022-12-23T15:17:18.498Z,11.13
2022-12-23T15:19:49.070Z,11.18
2022-12-23T15:22:23.677Z,10.80
2022-12-23T15:24:53.097Z,11.48
2022-12-23T15:27:28.462Z,10.20
2022-12-23T15:29:57.551Z,10.68
2022-12-23T15:32:31.551Z,11.10
2022-12-23T15:35:16.121Z,10.05
2022-12-23T15:37:49.341Z,11.00
2022-12-23T15:40:26.683Z,10.38
2022-12-23T15:42:53.876Z,9.80
2022-12-23T15:45:23.251Z,10.15
2022-12-23T15:47:50.478Z,9.70
2022-12-23T15:50:20.270Z,9.43
2022-12-23T15:52:49.724Z,10.25
2022-12-23T15:55:30.881Z,11.68
2022-12-23T15:58:01.600Z,9.63
2022-12-23T16:00:46.001Z,10.02
2022-12-23T16:03:33.038Z,10.48
2022-12-23T16:06:18.643Z,9.98
2022-12-23T16:11:20.147Z,9.32
2022-12-23T16:14:01.095Z,9.43
2022-12-23T16:16:28.122Z,8.18
2022-12-23T16:18:55.794Z,7.57
2022-12-23T16:21:28.234Z,7.70
2022-12-23T16:23:58.026Z,8.13
2022-12-23T16:26:27.729Z,7.97
2022-12-23T16:28:59.729Z,7.90
2022-12-23T16:31:27.094Z,7.38
2022-12-23T16:34:02.962Z,9.07
2022-12-23T16:36:45.083Z,8.02
2022-12-23T16:39:28.829Z,8.55
2022-12-23T16:41:56.962Z,6.95
2022-12-23T16:44:27.439Z,6.80
2022-12-23T16:46:54.218Z,7.80
2022-12-23T16:49:34.378Z,7.57
2022-12-23T16:52:01.754Z,7.13
2022-12-23T16:54:31.333Z,7.82
2022-12-23T16:56:58.695Z,7.30
2022-12-23T16:59:26.002Z,7.70
2022-12-23T17:02:02.894Z,7.80
2022-12-23T17:04:30.183Z,7.40
2022-12-23T17:06:59.413Z,8.10
2022-12-23T17:09:26.474Z,7.45
2022-12-23T17:11:54.255Z,7.13
2022-12-23T17:14:26.834Z,7.55
2022-12-23T17:16:54.431Z,7.53
2022-12-23T17:19:27.910Z,7.45
2022-12-23T17:22:00.337Z,7.00
2022-12-23T17:24:27.542Z,7.13
2022-12-23T17:26:55.849Z,7.57
2022-12-23T17:29:22.995Z,6.75
2022-12-23T17:31:51.166Z,7.00
2022-12-23T17:34:20.103Z,6.25
2022-12-23T17:36:50.287Z,6.45
2022-12-23T17:39:17.779Z,5.50
2022-12-23T17:41:44.580Z,5.53
2022-12-23T17:44:14.190Z,5.63
2022-12-23T17:46:41.019Z,4.30
2022-12-23T17:49:08.672Z,5.13
2022-12-23T17:51:36.250Z,4.65
2022-12-23T17:54:04.655Z,3.67
2022-12-23T17:56:31.318Z,3.28
2022-12-23T17:58:58.512Z,3.75
2022-12-23T18:01:28.228Z,4.43
2022-12-23T18:03:56.183Z,4.32
2022-12-23T18:06:29.529Z,4.45
2022-12-23T18:11:58.753Z,4.13
2022-12-23T18:17:30.534Z,11.80
2022-12-23T18:20:16.038Z,7.72
2022-12-23T18:22:48.186Z,7.78
2022-12-23T18:25:26.950Z,4.65
2022-12-23T18:27:55.328Z,4.82
2022-12-23T18:30:22.504Z,4.78
2022-12-23T18:32:49.212Z,6.43
2022-12-23T18:35:39.741Z,6.18
2022-12-23T18:38:06.300Z,6.05
2022-12-23T18:40:33.361Z,8.75
2022-12-23T18:43:00.769Z,7.63
2022-12-23T18:46:01.209Z,6.65
2022-12-23T18:48:28.371Z,7.93
2022-12-23T18:50:58.149Z,8.38
2022-12-23T18:53:25.587Z,7.68
2022-12-23T18:55:53.653Z,7.47
2022-12-23T18:58:21.252Z,6.63
2022-12-23T19:00:50.107Z,9.10
2022-12-23T19:03:27.557Z,7.38
2022-12-23T19:05:55.826Z,6.47
2022-12-23T19:08:27.243Z,6.85
2022-12-23T19:11:01.849Z,7.65
2022-12-23T19:13:28.506Z,8.68
2022-12-23T19:15:56.823Z,6.22
2022-12-23T19:18:24.013Z,6.65
2022-12-23T19:20:50.907Z,6.45
2022-12-23T19:23:18.071Z,5.18
2022-12-23T19:25:54.472Z,3.92
2022-12-23T19:28:29.803Z,3.28
2022-12-23T19:30:56.492Z,3.47
2022-12-23T19:33:26.664Z,2.38
2022-12-23T19:35:57.399Z,2.95
2022-12-23T19:38:27.163Z,1.55
2022-12-23T19:40:57.703Z,1.27
2022-12-23T19:43:27.004Z,2.60
2022-12-23T19:45:58.832Z,1.48
2022-12-23T19:48:26.181Z,2.22
2022-12-23T19:51:13.972Z,1.75
2022-12-23T19:53:43.106Z,2.35
2022-12-23T19:56:15.443Z,1.80
2022-12-23T19:58:43.965Z,2.63
2022-12-23T20:01:17.243Z,1.92
2022-12-23T20:03:46.827Z,1.80
2022-12-23T20:06:17.311Z,2.17
2022-12-23T20:08:44.379Z,2.08
2022-12-23T20:11:16.762Z,1.70
2022-12-23T20:13:44.839Z,2.85
2022-12-23T20:16:11.544Z,1.80
2022-12-23T20:18:39.103Z,3.13
2022-12-23T20:21:07.285Z,2.50
2022-12-23T20:23:34.558Z,4.03
2022-12-23T20:26:01.674Z,4.38
2022-12-23T20:28:29.300Z,3.45
2022-12-23T20:31:01.881Z,4.70
2022-12-23T20:33:29.798Z,4.97
2022-12-23T20:35:56.435Z,3.78
2022-12-23T20:38:24.107Z,3.92
2022-12-23T20:40:50.649Z,5.15
2022-12-23T20:43:17.788Z,5.97
2022-12-23T20:45:44.930Z,4.60
2022-12-23T20:48:11.467Z,3.20
2022-12-23T20:50:40.674Z,3.63
2022-12-23T20:53:07.493Z,4.57
2022-12-23T20:55:34.042Z,2.17
2022-12-23T20:58:23.540Z,2.75
2022-12-23T21:00:51.063Z,4.75
2022-12-23T21:03:17.748Z,3.90
2022-12-23T21:05:44.895Z,2.63
2022-12-23T21:08:11.494Z,3.00
2022-12-23T21:10:39.721Z,3.92
2022-12-23T21:13:07.875Z,4.97
2022-12-23T21:15:34.458Z,3.03
2022-12-23T21:18:02.459Z,4.28
2022-12-23T21:20:29.073Z,2.22
2022-12-23T21:23:03.474Z,2.75
2022-12-23T21:25:34.224Z,3.15
2022-12-23T21:28:13.315Z,2.45
2022-12-23T21:30:43.925Z,3.95
2022-12-23T21:33:14.836Z,3.90
2022-12-23T21:35:41.390Z,3.10
2022-12-23T21:38:08.375Z,3.15
2022-12-23T21:40:35.495Z,2.50
2022-12-23T21:43:08.400Z,3.00
2022-12-23T21:45:38.324Z,4.18
2022-12-23T21:48:05.390Z,3.80
2022-12-23T21:50:35.189Z,2.95
2022-12-23T21:53:10.930Z,3.88
2022-12-23T21:55:38.045Z,2.75
2022-12-23T21:58:10.213Z,2.78
2022-12-23T22:00:37.709Z,4.50
2022-12-23T22:03:04.913Z,4.43
2022-12-23T22:05:32.380Z,2.97
2022-12-23T22:08:05.215Z,3.30
2022-12-23T22:10:40.435Z,6.47
2022-12-23T22:13:07.139Z,4.13
2022-12-23T22:15:33.702Z,4.70
2022-12-23T22:18:04.671Z,1.83
2022-12-23T22:20:46.773Z,2.90
2022-12-23T22:23:15.481Z,2.65
2022-12-23T22:25:45.241Z,2.42
2022-12-23T22:28:23.736Z,2.67
2022-12-23T22:31:00.355Z,2.20
2022-12-23T22:33:26.891Z,2.75
2022-12-23T22:35:56.887Z,2.38
2022-12-23T22:38:26.883Z,3.97
2022-12-23T22:40:54.347Z,2.97
2022-12-23T22:43:21.038Z,3.65
2022-12-23T22:46:00.664Z,2.70
2022-12-23T22:48:30.660Z,2.85
2022-12-23T22:51:09.715Z,3.58
2022-12-23T22:53:37.447Z,3.30
2022-12-23T22:56:06.066Z,3.65
2022-12-23T22:58:34.988Z,3.05
2022-12-23T23:01:03.825Z,4.15
2022-12-23T23:03:35.670Z,5.82
2022-12-23T23:06:08.889Z,3.60
2022-12-23T23:08:43.033Z,3.30
2022-12-23T23:11:11.340Z,3.13
2022-12-23T23:13:39.880Z,3.80
2022-12-23T23:16:07.268Z,4.10
2022-12-23T23:18:34.464Z,4.63
2022-12-23T23:21:01.071Z,4.90
2022-12-23T23:23:28.373Z,5.45
2022-12-23T23:25:55.372Z,4.05
2022-12-23T23:28:22.560Z,4.38
2022-12-23T23:30:55.402Z,4.10
2022-12-23T23:33:30.341Z,3.97
2022-12-23T23:35:59.018Z,3.40
2022-12-23T23:38:27.087Z,4.15
2022-12-23T23:40:55.616Z,6.85
2022-12-23T23:43:24.001Z,4.75
2022-12-23T23:45:51.400Z,5.10
2022-12-23T23:48:19.342Z,4.32
2022-12-23T23:50:45.943Z,3.67
2022-12-23T23:53:13.448Z,3.70
2022-12-23T23:55:40.573Z,3.95
2022-12-23T23:58:08.117Z,4.55
